createdAt,value
2019-03-26T00:01:47.970Z,5.40
2019-03-26T00:04:14.199Z,5.40
2019-03-26T00:06:40.435Z,5.40
2019-03-26T00:09:07.454Z,5.40
2019-03-26T00:11:34.050Z,5.40
2019-03-26T00:14:00.284Z,5.40
2019-03-26T00:16:26.519Z,5.40
2019-03-26T00:18:53.019Z,5.40
2019-03-26T00:21:19.551Z,5.40
2019-03-26T00:23:45.762Z,5.40
2019-03-26T00:26:11.982Z,5.50
2019-03-26T00:28:38.218Z,5.50
2019-03-26T00:31:04.462Z,5.50
2019-03-26T00:33:36.378Z,5.60
2019-03-26T00:35:58.721Z,5.50
2019-03-26T00:38:24.959Z,5.60
2019-03-26T00:40:51.549Z,5.60
2019-03-26T00:43:17.790Z,5.60
2019-03-26T00:45:44.046Z,5.60
2019-03-26T00:48:10.288Z,5.70
2019-03-26T00:50:36.510Z,5.60
2019-03-26T00:53:02.872Z,5.60
2019-03-26T00:55:29.087Z,5.60
2019-03-26T00:57:55.316Z,5.60
2019-03-26T01:00:38.756Z,5.60
2019-03-26T01:03:05.428Z,5.60
2019-03-26T01:05:31.763Z,5.60
2019-03-26T01:07:57.982Z,5.60
2019-03-26T01:10:25.929Z,5.60
2019-03-26T01:12:52.483Z,5.60
2019-03-26T01:15:18.727Z,5.60
2019-03-26T01:17:44.947Z,5.60
2019-03-26T01:20:11.392Z,5.70
2019-03-26T01:22:37.915Z,5.60
2019-03-26T01:25:04.462Z,5.60
2019-03-26T01:27:30.991Z,5.60
2019-03-26T01:30:17.102Z,5.70
2019-03-26T01:32:43.311Z,5.70
2019-03-26T01:35:09.660Z,5.70
2019-03-26T01:37:36.182Z,5.70
2019-03-26T01:40:03.735Z,5.70
2019-03-26T01:42:29.961Z,5.70
2019-03-26T01:44:56.195Z,5.70
2019-03-26T01:47:22.438Z,5.60
2019-03-26T01:49:48.949Z,5.60
2019-03-26T01:52:15.175Z,5.70
2019-03-26T01:54:41.435Z,5.70
2019-03-26T01:57:07.640Z,5.60
2019-03-26T01:59:33.871Z,5.60
2019-03-26T02:02:00.130Z,5.60
2019-03-26T02:04:26.350Z,5.60
2019-03-26T02:06:52.603Z,5.60
2019-03-26T02:09:18.821Z,5.60
2019-03-26T02:11:45.162Z,5.60
2019-03-26T02:14:11.381Z,5.60
2019-03-26T02:16:37.614Z,5.70
2019-03-26T02:19:03.835Z,5.70
2019-03-26T02:21:30.078Z,5.70
2019-03-26T02:23:56.292Z,5.70
2019-03-26T02:26:22.655Z,5.70
2019-03-26T02:28:48.889Z,5.70
2019-03-26T02:31:15.129Z,5.70
2019-03-26T02:33:41.368Z,5.70
2019-03-26T02:36:07.572Z,5.60
2019-03-26T02:38:33.815Z,5.60
2019-03-26T02:41:00.038Z,5.60
2019-03-26T02:43:26.280Z,5.60
2019-03-26T02:45:52.489Z,5.60
2019-03-26T02:48:18.748Z,5.60
2019-03-26T02:50:44.976Z,5.60
2019-03-26T02:53:11.231Z,5.60
2019-03-26T02:55:37.651Z,5.70
2019-03-26T02:58:03.861Z,5.60
2019-03-26T03:00:30.100Z,5.60
2019-03-26T03:02:56.319Z,5.60
2019-03-26T03:05:35.300Z,5.70
2019-03-26T03:07:50.675Z,5.70
2019-03-26T03:10:17.264Z,5.60
2019-03-26T03:12:43.591Z,5.60
2019-03-26T03:15:09.903Z,5.60
2019-03-26T03:17:36.149Z,5.60
2019-03-26T03:20:04.468Z,5.50
2019-03-26T03:22:30.703Z,5.60
2019-03-26T03:24:57.028Z,5.50
2019-03-26T03:27:23.265Z,5.50
2019-03-26T03:29:49.472Z,5.50
2019-03-26T03:32:15.722Z,5.50
2019-03-26T03:34:41.936Z,5.50
2019-03-26T03:37:08.170Z,5.60
2019-03-26T03:39:34.675Z,5.60
2019-03-26T03:42:01.056Z,5.60
2019-03-26T03:44:27.344Z,5.60
2019-03-26T03:46:56.288Z,5.50
2019-03-26T03:49:24.253Z,5.60
2019-03-26T03:51:52.364Z,5.60
2019-03-26T03:54:19.104Z,5.60
2019-03-26T03:56:49.137Z,5.70
2019-03-26T03:59:15.886Z,5.60
2019-03-26T04:01:42.127Z,5.60
2019-03-26T04:04:08.338Z,5.60
2019-03-26T04:06:34.584Z,5.70
2019-03-26T04:09:00.806Z,5.70
2019-03-26T04:11:27.055Z,5.70
2019-03-26T04:13:53.270Z,5.70
2019-03-26T04:16:19.520Z,5.60
2019-03-26T04:18:45.758Z,5.60
2019-03-26T04:21:12.339Z,5.60
2019-03-26T04:23:38.568Z,5.60
2019-03-26T04:26:04.789Z,5.60
2019-03-26T04:28:31.023Z,5.60
2019-03-26T04:30:57.251Z,5.60
2019-03-26T04:33:23.499Z,5.60
2019-03-26T04:35:49.740Z,5.60
2019-03-26T04:38:15.974Z,5.60
2019-03-26T04:40:42.198Z,5.60
2019-03-26T04:43:08.450Z,5.60
2019-03-26T04:45:34.650Z,5.60
2019-03-26T04:48:00.938Z,5.70
2019-03-26T04:50:27.185Z,5.60
2019-03-26T04:52:53.405Z,5.60
2019-03-26T04:55:19.947Z,5.70
2019-03-26T04:57:46.205Z,5.60
2019-03-26T05:00:12.939Z,5.70
2019-03-26T05:02:39.179Z,5.70
2019-03-26T05:05:05.719Z,5.70
2019-03-26T05:07:31.942Z,5.70
2019-03-26T05:09:58.159Z,5.70
2019-03-26T05:12:24.396Z,5.70
2019-03-26T05:14:50.618Z,5.80
2019-03-26T05:17:16.866Z,5.80
2019-03-26T05:19:43.078Z,5.80
2019-03-26T05:22:09.314Z,5.90
2019-03-26T05:24:35.534Z,5.90
2019-03-26T05:27:01.762Z,5.90
2019-03-26T05:29:28.001Z,5.90
2019-03-26T05:31:54.218Z,5.80
2019-03-26T05:34:20.482Z,5.80
2019-03-26T05:36:51.452Z,5.80
2019-03-26T05:39:14.813Z,5.80
2019-03-26T05:41:41.075Z,5.80
2019-03-26T05:44:07.300Z,5.80
2019-03-26T05:46:33.537Z,5.70
2019-03-26T05:48:59.794Z,5.70
2019-03-26T05:51:26.966Z,5.70
2019-03-26T05:53:53.210Z,5.70
2019-03-26T05:56:19.442Z,5.70
2019-03-26T05:58:45.679Z,5.70
2019-03-26T06:01:12.224Z,5.70
2019-03-26T06:03:38.466Z,5.80
2019-03-26T06:06:04.982Z,5.80
2019-03-26T06:08:31.223Z,5.80
2019-03-26T06:10:57.455Z,5.80
2019-03-26T06:13:24.054Z,5.80
2019-03-26T06:15:50.295Z,5.80
2019-03-26T06:18:16.532Z,5.80
2019-03-26T06:20:42.792Z,5.80
2019-03-26T06:23:09.109Z,5.80
2019-03-26T06:25:35.323Z,5.90
2019-03-26T06:28:01.556Z,5.90
2019-03-26T06:30:27.778Z,5.90
2019-03-26T06:32:53.991Z,6.00
2019-03-26T06:35:20.214Z,6.00
2019-03-26T06:37:46.454Z,6.00
2019-03-26T06:40:14.747Z,6.10
2019-03-26T06:42:41.286Z,6.10
2019-03-26T06:45:09.041Z,6.10
2019-03-26T06:47:35.282Z,6.20
2019-03-26T06:50:01.834Z,6.30
2019-03-26T06:52:28.239Z,6.40
2019-03-26T06:54:54.461Z,6.50
2019-03-26T06:57:20.698Z,6.60
2019-03-26T06:59:46.915Z,6.60
2019-03-26T07:02:13.171Z,6.60
2019-03-26T07:04:45.343Z,6.60
2019-03-26T07:07:12.008Z,6.60
2019-03-26T07:09:38.224Z,6.70
2019-03-26T07:12:07.605Z,6.80
2019-03-26T07:14:32.494Z,6.80
2019-03-26T07:16:58.762Z,6.80
2019-03-26T07:19:24.963Z,6.80
2019-03-26T07:21:51.222Z,6.90
2019-03-26T07:24:17.438Z,7.00
2019-03-26T07:26:43.666Z,7.10
2019-03-26T07:29:09.908Z,7.00
2019-03-26T07:31:36.138Z,7.00
2019-03-26T07:34:02.487Z,7.00
2019-03-26T07:36:28.705Z,7.00
2019-03-26T07:38:54.959Z,7.00
2019-03-26T07:41:21.181Z,7.00
2019-03-26T07:43:47.415Z,6.90
2019-03-26T07:46:13.650Z,6.80
2019-03-26T07:48:39.923Z,6.70
2019-03-26T07:51:06.143Z,6.80
2019-03-26T07:53:32.387Z,6.80
2019-03-26T07:55:58.607Z,6.90
2019-03-26T07:58:24.875Z,6.90
2019-03-26T08:00:51.083Z,7.00
2019-03-26T08:03:17.321Z,7.10
2019-03-26T08:05:43.527Z,7.20
2019-03-26T08:08:09.751Z,7.20
2019-03-26T08:10:35.982Z,7.20
2019-03-26T08:13:02.552Z,7.20
2019-03-26T08:15:28.730Z,7.10
2019-03-26T08:17:54.930Z,7.20
2019-03-26T08:20:21.186Z,7.20
2019-03-26T08:22:47.734Z,7.30
2019-03-26T08:25:13.963Z,7.40
2019-03-26T08:27:40.499Z,7.40
2019-03-26T08:30:07.345Z,7.40
2019-03-26T08:32:33.582Z,7.50
2019-03-26T08:34:59.820Z,7.50
2019-03-26T08:37:26.327Z,7.40
2019-03-26T08:39:52.578Z,7.50
2019-03-26T08:42:18.986Z,7.50
2019-03-26T08:44:45.198Z,7.50
2019-03-26T08:47:11.475Z,7.60
2019-03-26T08:49:37.690Z,7.60
2019-03-26T08:52:04.209Z,7.60
2019-03-26T08:54:30.423Z,7.60
2019-03-26T08:56:56.651Z,7.60
2019-03-26T08:59:22.878Z,7.80
2019-03-26T09:01:49.102Z,7.90
2019-03-26T09:04:15.314Z,8.00
2019-03-26T09:06:42.223Z,8.10
2019-03-26T09:09:08.438Z,8.30
2019-03-26T09:11:34.667Z,8.30
2019-03-26T09:14:00.911Z,8.30
2019-03-26T09:16:27.127Z,8.40
2019-03-26T09:18:53.372Z,8.30
2019-03-26T09:21:19.579Z,7.80
2019-03-26T09:23:46.109Z,7.60
2019-03-26T09:26:12.331Z,7.20
2019-03-26T09:28:38.601Z,7.10
2019-03-26T09:31:04.818Z,7.10
2019-03-26T09:33:31.054Z,7.00
2019-03-26T09:35:57.288Z,7.00
2019-03-26T09:38:23.782Z,7.20
2019-03-26T09:40:50.015Z,7.20
2019-03-26T09:43:16.248Z,7.20
2019-03-26T09:45:42.490Z,7.20
2019-03-26T09:48:28.847Z,7.40
2019-03-26T09:50:55.067Z,7.60
2019-03-26T09:53:21.327Z,7.70
2019-03-26T09:55:47.575Z,7.90
2019-03-26T09:58:13.894Z,7.90
2019-03-26T10:00:40.196Z,7.80
2019-03-26T10:03:06.447Z,7.70
2019-03-26T10:05:32.915Z,7.70
2019-03-26T10:07:59.431Z,7.70
2019-03-26T10:10:25.659Z,7.80
2019-03-26T10:12:51.902Z,7.90
2019-03-26T10:15:18.423Z,7.90
2019-03-26T10:17:44.670Z,7.80
2019-03-26T10:20:11.508Z,7.90
2019-03-26T10:22:37.938Z,8.00
2019-03-26T10:25:05.854Z,8.00
2019-03-26T10:27:34.962Z,7.90
2019-03-26T10:30:00.442Z,8.00
2019-03-26T10:32:27.030Z,7.90
2019-03-26T10:34:53.438Z,8.00
2019-03-26T10:37:19.795Z,8.10
2019-03-26T10:39:45.999Z,8.10
2019-03-26T10:42:12.239Z,8.10
2019-03-26T10:44:38.438Z,8.10
2019-03-26T10:47:05.025Z,8.20
2019-03-26T10:49:31.242Z,8.10
2019-03-26T10:51:57.479Z,8.00
2019-03-26T10:54:23.686Z,8.00
2019-03-26T10:56:49.923Z,8.00
2019-03-26T10:59:16.139Z,8.10
2019-03-26T11:01:42.375Z,8.20
2019-03-26T11:04:08.631Z,8.30
2019-03-26T11:06:34.857Z,8.30
2019-03-26T11:09:01.400Z,8.40
2019-03-26T11:11:27.635Z,8.50
2019-03-26T11:13:54.150Z,8.40
2019-03-26T11:16:20.365Z,8.40
2019-03-26T11:18:46.617Z,8.40
2019-03-26T11:21:13.142Z,8.50
2019-03-26T11:23:39.485Z,8.60
2019-03-26T11:26:06.023Z,8.70
2019-03-26T11:28:32.265Z,8.70
2019-03-26T11:30:58.896Z,8.70
2019-03-26T11:33:25.125Z,8.70
2019-03-26T11:35:51.350Z,8.80
2019-03-26T11:38:18.609Z,8.80
2019-03-26T11:40:44.996Z,8.70
2019-03-26T11:43:11.231Z,8.70
2019-03-26T11:45:37.464Z,8.70
2019-03-26T11:48:03.795Z,8.70
2019-03-26T11:50:30.035Z,8.60
2019-03-26T11:52:56.386Z,8.60
2019-03-26T11:55:22.904Z,8.50
2019-03-26T11:57:49.130Z,8.40
2019-03-26T12:00:17.964Z,8.40
2019-03-26T12:02:44.570Z,8.50
2019-03-26T12:05:11.083Z,8.40
2019-03-26T12:07:37.423Z,8.30
2019-03-26T12:10:06.051Z,8.30
2019-03-26T12:12:32.659Z,8.30
2019-03-26T12:14:58.879Z,8.30
2019-03-26T12:17:25.114Z,8.40
2019-03-26T12:19:51.351Z,8.30
2019-03-26T12:22:17.586Z,8.10
2019-03-26T12:24:44.115Z,7.80
2019-03-26T12:27:10.359Z,7.50
2019-03-26T12:29:36.583Z,7.30
2019-03-26T12:32:02.799Z,7.30
2019-03-26T12:34:29.042Z,7.40
2019-03-26T12:36:55.359Z,7.40
2019-03-26T12:39:21.894Z,7.40
2019-03-26T12:41:48.106Z,7.40
2019-03-26T12:44:14.655Z,7.40
2019-03-26T12:46:40.875Z,7.40
2019-03-26T12:49:07.134Z,7.50
2019-03-26T12:51:33.371Z,7.50
2019-03-26T12:53:59.982Z,7.60
2019-03-26T12:56:26.206Z,7.60
2019-03-26T12:58:52.461Z,7.60
2019-03-26T13:01:18.976Z,7.70
2019-03-26T13:03:45.206Z,7.70
2019-03-26T13:06:11.431Z,7.70
2019-03-26T13:08:37.678Z,7.80
2019-03-26T13:11:04.092Z,7.70
2019-03-26T13:13:30.559Z,7.80
2019-03-26T13:15:56.762Z,7.80
2019-03-26T13:18:23.002Z,7.90
2019-03-26T13:20:49.222Z,7.90
2019-03-26T13:23:15.756Z,7.90
2019-03-26T13:25:41.995Z,7.90
2019-03-26T13:28:08.515Z,8.00
2019-03-26T13:30:34.752Z,8.00
2019-03-26T13:33:00.971Z,8.10
2019-03-26T13:35:27.228Z,8.10
2019-03-26T13:37:53.839Z,8.10
2019-03-26T13:40:27.238Z,8.20
2019-03-26T13:42:48.451Z,8.30
2019-03-26T13:45:14.886Z,8.40
2019-03-26T13:47:41.151Z,8.40
2019-03-26T13:50:08.946Z,8.40
2019-03-26T13:52:35.142Z,8.40
2019-03-26T13:55:01.583Z,8.30
2019-03-26T13:57:27.801Z,8.30
2019-03-26T13:59:54.652Z,8.20
2019-03-26T14:02:21.001Z,8.20
2019-03-26T14:04:47.272Z,8.30
2019-03-26T14:07:13.601Z,8.30
2019-03-26T14:09:39.826Z,8.30
2019-03-26T14:12:06.067Z,8.30
2019-03-26T14:14:32.286Z,8.30
2019-03-26T14:16:58.543Z,8.30
2019-03-26T14:19:24.799Z,8.30
2019-03-26T14:21:51.384Z,8.30
2019-03-26T14:24:17.611Z,8.30
2019-03-26T14:26:43.865Z,8.30
2019-03-26T14:29:10.091Z,8.40
2019-03-26T14:31:36.331Z,8.40
2019-03-26T14:34:02.837Z,8.40
2019-03-26T14:36:29.071Z,8.30
2019-03-26T14:38:55.293Z,8.30
2019-03-26T14:41:21.508Z,8.40
2019-03-26T14:43:47.767Z,8.40
2019-03-26T14:46:13.967Z,8.50
2019-03-26T14:48:40.230Z,8.40
2019-03-26T14:51:06.454Z,8.30
2019-03-26T14:53:32.698Z,8.30
2019-03-26T14:55:58.912Z,8.30
2019-03-26T14:58:25.428Z,8.40
2019-03-26T15:00:51.646Z,8.30
2019-03-26T15:03:17.895Z,8.40
2019-03-26T15:05:44.115Z,8.40
2019-03-26T15:08:10.339Z,8.40
2019-03-26T15:10:36.588Z,8.40
2019-03-26T15:13:02.918Z,8.40
2019-03-26T15:15:29.151Z,8.40
2019-03-26T15:17:55.675Z,8.40
2019-03-26T15:20:21.907Z,8.40
2019-03-26T15:22:48.130Z,8.30
2019-03-26T15:25:14.371Z,8.30
2019-03-26T15:27:40.581Z,8.30
2019-03-26T15:30:07.628Z,8.30
2019-03-26T15:32:33.834Z,8.30
2019-03-26T15:35:00.048Z,8.30
2019-03-26T15:37:26.578Z,8.30
2019-03-26T15:39:52.947Z,8.20
2019-03-26T15:42:19.198Z,8.20
2019-03-26T15:44:45.418Z,8.20
2019-03-26T15:47:11.965Z,8.10
2019-03-26T15:49:38.485Z,8.10
2019-03-26T15:52:04.718Z,8.00
2019-03-26T15:54:30.950Z,8.00
2019-03-26T15:56:57.212Z,8.00
2019-03-26T15:59:23.431Z,8.00
2019-03-26T16:01:49.664Z,8.00
2019-03-26T16:04:16.222Z,8.00
2019-03-26T16:06:42.798Z,7.90
2019-03-26T16:09:09.014Z,7.90
2019-03-26T16:11:36.357Z,7.90
2019-03-26T16:14:02.809Z,7.90
2019-03-26T16:16:29.031Z,7.80
2019-03-26T16:18:55.270Z,7.80
2019-03-26T16:21:21.501Z,7.80
2019-03-26T16:23:47.719Z,7.80
2019-03-26T16:26:13.947Z,7.70
2019-03-26T16:28:40.182Z,7.70
2019-03-26T16:31:06.402Z,7.60
2019-03-26T16:33:32.966Z,7.60
2019-03-26T16:35:59.486Z,7.50
2019-03-26T16:38:26.130Z,7.60
2019-03-26T16:40:52.387Z,7.50
2019-03-26T16:43:18.636Z,7.60
2019-03-26T16:45:44.948Z,7.60
2019-03-26T16:48:11.275Z,7.60
2019-03-26T16:50:37.502Z,7.50
2019-03-26T16:53:03.852Z,7.50
2019-03-26T16:55:30.059Z,7.50
2019-03-26T16:57:56.679Z,7.50
2019-03-26T17:00:30.270Z,7.50
2019-03-26T17:02:57.610Z,7.50
2019-03-26T17:05:25.015Z,7.40
2019-03-26T17:07:51.259Z,7.40
2019-03-26T17:10:17.574Z,7.30
2019-03-26T17:12:43.831Z,7.30
2019-03-26T17:15:10.310Z,7.40
2019-03-26T17:17:36.529Z,7.40
2019-03-26T17:20:04.673Z,7.40
2019-03-26T17:22:30.903Z,7.40
2019-03-26T17:24:57.155Z,7.40
2019-03-26T17:27:23.346Z,7.40
2019-03-26T17:29:49.582Z,7.40
2019-03-26T17:32:15.810Z,7.30
2019-03-26T17:34:42.407Z,7.20
2019-03-26T17:37:08.612Z,7.20
2019-03-26T17:39:34.867Z,7.20
2019-03-26T17:42:01.395Z,7.20
2019-03-26T17:44:27.631Z,7.20
2019-03-26T17:46:54.157Z,7.20
2019-03-26T17:49:20.807Z,7.20
2019-03-26T17:51:47.031Z,7.20
2019-03-26T17:54:13.233Z,7.20
2019-03-26T17:56:39.490Z,7.20
2019-03-26T17:59:05.835Z,7.10
2019-03-26T18:01:32.067Z,7.10
2019-03-26T18:03:58.594Z,7.10
2019-03-26T18:06:24.947Z,7.10
2019-03-26T18:08:52.208Z,7.20
2019-03-26T18:11:18.402Z,7.20
2019-03-26T18:13:44.936Z,7.20
2019-03-26T18:16:11.747Z,7.10
2019-03-26T18:18:37.985Z,7.20
2019-03-26T18:21:04.318Z,7.10
2019-03-26T18:23:30.540Z,7.20
2019-03-26T18:25:57.310Z,7.10
2019-03-26T18:28:23.538Z,7.10
2019-03-26T18:30:49.763Z,7.10
2019-03-26T18:33:15.985Z,7.10
2019-03-26T18:35:42.224Z,7.10
2019-03-26T18:38:08.442Z,7.20
2019-03-26T18:40:34.786Z,7.20
2019-03-26T18:43:01.015Z,7.20
2019-03-26T18:45:27.559Z,7.30
2019-03-26T18:47:53.774Z,7.30
2019-03-26T18:50:20.235Z,7.30
2019-03-26T18:52:46.442Z,7.20
2019-03-26T18:55:13.278Z,7.30
2019-03-26T18:57:39.494Z,7.30
2019-03-26T19:00:09.035Z,7.20
2019-03-26T19:02:35.252Z,7.20
2019-03-26T19:05:01.672Z,7.20
2019-03-26T19:07:28.020Z,7.20
2019-03-26T19:09:54.231Z,7.20
2019-03-26T19:12:20.500Z,7.30
2019-03-26T19:14:47.330Z,7.20
2019-03-26T19:17:13.769Z,7.20
2019-03-26T19:19:40.716Z,7.20
2019-03-26T19:22:07.627Z,7.20
2019-03-26T19:24:34.301Z,7.50
2019-03-26T19:27:03.059Z,7.60
2019-03-26T19:29:29.010Z,7.60
2019-03-26T19:31:55.277Z,7.80
2019-03-26T19:34:21.891Z,7.70
2019-03-26T19:36:48.162Z,7.70
2019-03-26T19:39:14.389Z,7.80
2019-03-26T19:41:40.758Z,7.70
2019-03-26T19:44:07.046Z,7.80
2019-03-26T19:46:33.929Z,8.00
2019-03-26T19:49:00.321Z,7.80
2019-03-26T19:51:26.990Z,7.70
2019-03-26T19:53:53.204Z,7.80
2019-03-26T19:56:19.423Z,7.80
2019-03-26T19:58:46.771Z,7.60
2019-03-26T20:01:13.331Z,7.50
2019-03-26T20:03:39.575Z,7.40
2019-03-26T20:06:13.201Z,7.30
2019-03-26T20:08:33.844Z,7.30
2019-03-26T20:11:00.082Z,7.30
2019-03-26T20:13:26.308Z,7.20
2019-03-26T20:15:52.852Z,7.20
2019-03-26T20:18:19.070Z,7.20
2019-03-26T20:20:45.611Z,7.20
2019-03-26T20:23:11.997Z,7.20
2019-03-26T20:25:38.196Z,7.20
2019-03-26T20:28:04.536Z,7.30
2019-03-26T20:30:31.043Z,7.30
2019-03-26T20:32:57.258Z,7.20
2019-03-26T20:35:23.501Z,7.20
2019-03-26T20:37:50.035Z,7.20
2019-03-26T20:40:16.682Z,7.20
2019-03-26T20:42:42.910Z,7.10
2019-03-26T20:45:10.251Z,7.20
2019-03-26T20:47:37.170Z,7.20
2019-03-26T20:50:04.839Z,7.20
2019-03-26T20:52:31.069Z,7.20
2019-03-26T20:54:57.286Z,7.10
2019-03-26T20:57:24.371Z,7.20
2019-03-26T20:59:50.636Z,7.20
2019-03-26T21:02:16.873Z,7.10
2019-03-26T21:04:43.082Z,7.20
2019-03-26T21:07:09.361Z,7.20
2019-03-26T21:09:35.586Z,7.20
2019-03-26T21:12:01.851Z,7.20
2019-03-26T21:14:28.390Z,7.30
2019-03-26T21:16:54.656Z,7.20
2019-03-26T21:19:21.001Z,7.20
2019-03-26T21:21:47.232Z,7.20
2019-03-26T21:24:13.471Z,7.30
2019-03-26T21:26:39.806Z,7.20
2019-03-26T21:29:06.041Z,7.20
2019-03-26T21:31:32.271Z,7.20
2019-03-26T21:33:58.514Z,7.20
2019-03-26T21:36:24.735Z,7.20
2019-03-26T21:38:50.942Z,7.20
2019-03-26T21:41:17.177Z,7.20
2019-03-26T21:43:43.404Z,7.30
2019-03-26T21:46:09.657Z,7.20
2019-03-26T21:48:35.896Z,7.20
2019-03-26T21:51:02.164Z,7.20
2019-03-26T21:53:28.754Z,7.30
2019-03-26T21:56:05.918Z,7.30
2019-03-26T21:58:23.034Z,7.30
2019-03-26T22:00:49.243Z,7.20
2019-03-26T22:03:15.471Z,7.20
2019-03-26T22:05:41.724Z,7.30
2019-03-26T22:08:08.030Z,7.30
2019-03-26T22:10:34.631Z,7.30
2019-03-26T22:13:01.146Z,7.30
2019-03-26T22:15:27.682Z,7.30
2019-03-26T22:17:53.891Z,7.20
2019-03-26T22:20:20.145Z,7.20
2019-03-26T22:22:46.678Z,7.10
2019-03-26T22:25:13.204Z,7.10
2019-03-26T22:27:39.747Z,7.10
2019-03-26T22:30:09.650Z,7.10
2019-03-26T22:32:36.203Z,7.10
2019-03-26T22:35:04.718Z,7.10
2019-03-26T22:37:30.958Z,7.10
2019-03-26T22:39:57.186Z,7.10
2019-03-26T22:42:23.462Z,7.10
2019-03-26T22:44:49.680Z,7.10
2019-03-26T22:47:15.947Z,7.10
2019-03-26T22:49:42.180Z,7.10
2019-03-26T22:52:08.383Z,7.10
2019-03-26T22:54:34.626Z,7.10
2019-03-26T22:57:00.839Z,7.10
2019-03-26T22:59:27.078Z,7.10
2019-03-26T23:01:53.294Z,7.10
2019-03-26T23:04:20.129Z,7.20
2019-03-26T23:06:46.559Z,7.10
2019-03-26T23:09:12.812Z,7.10
2019-03-26T23:11:39.030Z,7.10
2019-03-26T23:14:05.243Z,7.10
2019-03-26T23:16:31.966Z,7.00
2019-03-26T23:18:58.163Z,7.10
2019-03-26T23:21:24.620Z,7.10
2019-03-26T23:23:50.835Z,7.10
2019-03-26T23:26:17.106Z,7.10
2019-03-26T23:28:43.294Z,7.10
2019-03-26T23:31:09.525Z,7.10
2019-03-26T23:33:35.886Z,7.10
2019-03-26T23:36:02.109Z,7.10
2019-03-26T23:38:28.344Z,7.10
2019-03-26T23:40:54.558Z,7.10
2019-03-26T23:43:20.812Z,7.10
2019-03-26T23:45:47.024Z,7.10
2019-03-26T23:48:13.596Z,7.10
2019-03-26T23:50:39.834Z,7.10
2019-03-26T23:53:06.046Z,7.10
2019-03-26T23:55:32.290Z,7.10
2019-03-26T23:57:58.518Z,7.00
